createdAt,value
2022-09-15T00:00:45.847Z,3.00
2022-09-15T00:04:09.109Z,1.92
2022-09-15T00:07:33.819Z,2.05
2022-09-15T00:10:59.640Z,1.90
2022-09-15T00:14:22.393Z,1.77
2022-09-15T00:17:49.667Z,1.95
2022-09-15T00:21:16.611Z,2.47
2022-09-15T00:24:42.035Z,2.00
2022-09-15T00:28:05.086Z,2.00
2022-09-15T00:31:30.098Z,3.42
2022-09-15T00:34:54.082Z,3.08
2022-09-15T00:38:18.069Z,2.20
2022-09-15T00:41:43.488Z,2.45
2022-09-15T00:45:07.366Z,2.95
2022-09-15T00:48:30.329Z,2.40
2022-09-15T00:51:56.660Z,2.35
2022-09-15T00:55:24.436Z,2.20
2022-09-15T00:58:52.613Z,2.20
2022-09-15T01:02:21.667Z,2.55
2022-09-15T01:05:49.089Z,2.67
2022-09-15T01:09:17.684Z,2.88
2022-09-15T01:12:42.068Z,3.57
2022-09-15T01:20:38.142Z,3.03
2022-09-15T01:24:36.935Z,2.60
2022-09-15T01:28:32.566Z,2.83
2022-09-15T01:32:20.714Z,2.90
2022-09-15T01:35:58.111Z,3.40
2022-09-15T01:39:26.809Z,2.80
2022-09-15T01:42:52.948Z,2.40
2022-09-15T01:46:17.406Z,3.47
2022-09-15T01:49:48.079Z,3.50
2022-09-15T01:53:15.129Z,3.53
2022-09-15T01:56:39.320Z,3.45
2022-09-15T02:00:02.693Z,4.15
2022-09-15T02:03:32.616Z,3.55
2022-09-15T02:07:02.965Z,4.30
2022-09-15T02:10:34.404Z,4.35
2022-09-15T02:14:12.315Z,3.72
2022-09-15T02:17:38.861Z,5.30
2022-09-15T02:21:11.138Z,5.15
2022-09-15T02:24:41.368Z,4.40
2022-09-15T02:28:09.138Z,5.35
2022-09-15T02:31:35.146Z,5.45
2022-09-15T02:35:01.112Z,4.72
2022-09-15T02:38:24.165Z,5.60
2022-09-15T02:41:49.480Z,4.45
2022-09-15T02:45:15.917Z,4.15
2022-09-15T02:48:38.676Z,4.60
2022-09-15T02:52:01.545Z,4.25
2022-09-15T02:55:24.866Z,5.35
2022-09-15T02:58:49.092Z,4.90
2022-09-15T03:02:13.029Z,4.78
2022-09-15T03:05:35.826Z,5.43
2022-09-15T03:09:02.968Z,5.80
2022-09-15T03:12:25.948Z,5.00
2022-09-15T03:15:50.141Z,4.97
2022-09-15T03:19:12.688Z,5.40
2022-09-15T03:22:35.757Z,5.32
2022-09-15T03:25:59.736Z,4.82
2022-09-15T03:29:22.900Z,4.95
2022-09-15T03:32:47.805Z,5.20
2022-09-15T03:36:11.236Z,4.45
2022-09-15T03:39:34.135Z,4.15
2022-09-15T03:42:57.498Z,5.13
2022-09-15T03:46:20.877Z,4.68
2022-09-15T03:49:45.371Z,5.28
2022-09-15T03:53:08.177Z,4.75
2022-09-15T03:56:33.976Z,4.85
2022-09-15T03:59:57.115Z,5.93
2022-09-15T04:03:20.175Z,6.05
2022-09-15T04:06:45.185Z,4.85
2022-09-15T04:10:09.485Z,5.57
2022-09-15T04:13:32.130Z,4.10
2022-09-15T04:16:55.289Z,3.40
2022-09-15T04:20:18.662Z,3.28
2022-09-15T04:23:43.672Z,3.47
2022-09-15T04:27:06.997Z,2.72
2022-09-15T04:30:30.309Z,3.60
2022-09-15T04:33:55.935Z,3.97
2022-09-15T04:37:19.408Z,4.15
2022-09-15T04:40:43.408Z,4.00
2022-09-15T04:44:06.903Z,5.63
2022-09-15T04:47:29.720Z,4.55
2022-09-15T04:50:53.183Z,4.32
2022-09-15T04:54:16.154Z,5.05
2022-09-15T04:57:40.228Z,4.60
2022-09-15T05:01:09.514Z,3.80
2022-09-15T05:04:32.807Z,4.70
2022-09-15T05:07:55.771Z,5.40
2022-09-15T05:11:19.442Z,4.07
2022-09-15T05:14:43.937Z,4.63
2022-09-15T05:18:07.869Z,3.72
2022-09-15T05:21:31.090Z,3.67
2022-09-15T05:24:54.357Z,3.70
2022-09-15T05:28:16.712Z,3.70
2022-09-15T05:31:40.799Z,3.72
2022-09-15T05:35:03.544Z,4.07
2022-09-15T05:38:27.565Z,4.25
2022-09-15T05:41:50.585Z,4.30
2022-09-15T05:45:13.544Z,5.13
2022-09-15T05:48:37.744Z,5.25
2022-09-15T05:52:01.044Z,5.60
2022-09-15T05:55:24.920Z,3.50
2022-09-15T05:58:50.219Z,4.55
2022-09-15T06:02:13.049Z,3.55
2022-09-15T06:05:37.965Z,4.93
2022-09-15T06:09:02.395Z,4.07
2022-09-15T06:12:25.628Z,4.15
2022-09-15T06:15:54.063Z,4.20
2022-09-15T06:19:17.489Z,4.10
2022-09-15T06:22:41.771Z,4.47
2022-09-15T06:26:18.559Z,3.38
2022-09-15T06:29:41.208Z,3.97
2022-09-15T06:33:11.247Z,3.95
2022-09-15T06:36:34.706Z,3.22
2022-09-15T06:39:59.735Z,3.80
2022-09-15T06:43:22.378Z,4.38
2022-09-15T06:46:45.434Z,4.97
2022-09-15T06:50:08.904Z,4.43
2022-09-15T06:53:33.022Z,3.75
2022-09-15T06:56:57.482Z,3.53
2022-09-15T07:00:25.038Z,3.40
2022-09-15T07:03:48.110Z,3.20
2022-09-15T07:07:11.391Z,3.70
2022-09-15T07:10:39.876Z,4.07
2022-09-15T07:17:27.638Z,4.30
2022-09-15T07:20:50.902Z,3.20
2022-09-15T07:24:13.473Z,3.20
2022-09-15T07:27:36.518Z,2.85
2022-09-15T07:31:03.897Z,6.20
2022-09-15T07:34:26.733Z,3.25
2022-09-15T07:37:52.153Z,2.88
2022-09-15T07:41:17.982Z,3.15
2022-09-15T07:44:42.585Z,2.95
2022-09-15T07:48:06.867Z,6.22
2022-09-15T07:51:29.416Z,4.88
2022-09-15T07:54:52.990Z,4.13
2022-09-15T07:58:15.955Z,3.58
2022-09-15T08:01:38.976Z,3.47
2022-09-15T08:05:03.040Z,5.93
2022-09-15T08:08:25.959Z,4.28
2022-09-15T08:11:48.710Z,3.08
2022-09-15T08:15:11.569Z,4.20
2022-09-15T08:18:37.908Z,3.67
2022-09-15T08:22:03.025Z,3.33
2022-09-15T08:25:26.048Z,3.72
2022-09-15T08:28:49.262Z,2.40
2022-09-15T08:32:12.413Z,2.30
2022-09-15T08:35:37.216Z,2.60
2022-09-15T08:39:02.275Z,4.78
2022-09-15T08:42:27.508Z,2.30
2022-09-15T08:45:56.536Z,1.80
2022-09-15T08:49:47.539Z,1.52
2022-09-15T08:53:13.938Z,1.98
2022-09-15T08:56:38.902Z,2.38
2022-09-15T09:00:02.059Z,2.38
2022-09-15T09:03:49.611Z,2.00
2022-09-15T09:07:24.247Z,1.80
2022-09-15T09:10:53.466Z,1.80
2022-09-15T09:14:26.233Z,1.77
2022-09-15T09:18:07.839Z,2.55
2022-09-15T09:21:34.176Z,2.95
2022-09-15T09:25:08.480Z,2.63
2022-09-15T09:28:43.958Z,2.10
2022-09-15T09:32:21.650Z,2.80
2022-09-15T09:35:47.584Z,5.22
2022-09-15T09:39:16.183Z,3.58
2022-09-15T09:42:38.947Z,3.28
2022-09-15T09:46:02.656Z,3.10
2022-09-15T09:49:30.385Z,2.28
2022-09-15T09:52:53.239Z,2.33
2022-09-15T09:56:26.031Z,7.18
2022-09-15T09:59:52.276Z,8.75
2022-09-15T10:03:18.707Z,12.23
2022-09-15T10:06:43.210Z,2.42
2022-09-15T10:10:06.879Z,2.42
2022-09-15T10:13:30.051Z,2.10
2022-09-15T10:17:04.027Z,1.75
2022-09-15T10:20:33.065Z,2.70
2022-09-15T10:23:57.974Z,1.70
2022-09-15T10:27:28.923Z,1.90
2022-09-15T10:31:07.749Z,1.75
2022-09-15T10:34:33.277Z,1.70
2022-09-15T10:38:10.873Z,1.80
2022-09-15T10:41:41.825Z,1.88
2022-09-15T10:45:27.054Z,1.95
2022-09-15T10:48:58.869Z,1.70
2022-09-15T10:52:32.279Z,1.17
2022-09-15T10:56:07.219Z,1.50
2022-09-15T10:59:43.900Z,2.08
2022-09-15T11:03:39.215Z,1.60
2022-09-15T11:07:10.683Z,1.70
2022-09-15T11:10:42.545Z,2.33
2022-09-15T11:14:24.856Z,2.15
2022-09-15T11:18:01.955Z,2.60
2022-09-15T11:21:31.678Z,2.50
2022-09-15T11:25:00.059Z,2.03
2022-09-15T11:28:27.423Z,2.53
2022-09-15T11:31:55.332Z,2.10
2022-09-15T11:35:39.242Z,2.08
2022-09-15T11:39:08.048Z,2.35
2022-09-15T11:42:38.069Z,2.03
2022-09-15T11:46:03.901Z,1.58
2022-09-15T11:49:33.410Z,2.30
2022-09-15T11:53:03.430Z,1.98
2022-09-15T11:56:31.413Z,2.00
2022-09-15T11:59:59.695Z,1.90
2022-09-15T12:03:29.415Z,1.77
2022-09-15T12:10:26.101Z,1.98
2022-09-15T12:13:49.254Z,2.40
2022-09-15T12:17:19.997Z,2.25
2022-09-15T12:20:50.950Z,4.75
2022-09-15T12:24:19.640Z,3.78
2022-09-15T12:31:29.886Z,3.20
2022-09-15T12:34:59.234Z,3.78
2022-09-15T12:38:25.274Z,2.58
2022-09-15T12:41:51.099Z,2.72
2022-09-15T12:45:44.112Z,2.70
2022-09-15T12:49:22.480Z,2.20
2022-09-15T12:52:47.792Z,1.98
2022-09-15T12:56:23.139Z,3.00
2022-09-15T12:59:45.701Z,3.00
2022-09-15T13:03:29.304Z,1.75
2022-09-15T13:07:34.391Z,1.42
2022-09-15T13:11:04.523Z,1.85
2022-09-15T13:14:35.460Z,1.67
2022-09-15T13:17:59.121Z,1.90
2022-09-15T13:21:25.784Z,2.92
2022-09-15T13:24:59.110Z,1.45
2022-09-15T13:28:26.247Z,1.38
2022-09-15T13:31:58.325Z,1.92
2022-09-15T13:35:58.660Z,1.80
2022-09-15T13:39:38.006Z,2.47
2022-09-15T13:43:31.268Z,1.67
2022-09-15T13:47:08.770Z,1.50
2022-09-15T13:50:39.863Z,1.55
2022-09-15T13:54:07.599Z,3.35
2022-09-15T14:01:16.074Z,3.53
2022-09-15T14:04:39.135Z,4.22
2022-09-15T14:08:04.730Z,6.28
2022-09-15T14:11:31.584Z,13.23
2022-09-15T14:14:59.760Z,10.15
2022-09-15T14:18:22.309Z,7.97
2022-09-15T14:21:51.299Z,3.42
2022-09-15T14:25:18.585Z,4.00
2022-09-15T14:28:42.142Z,4.80
2022-09-15T14:32:07.108Z,9.55
2022-09-15T14:35:36.260Z,10.48
2022-09-15T14:39:24.005Z,3.83
2022-09-15T14:42:46.553Z,6.22
2022-09-15T14:46:13.314Z,9.07
2022-09-15T14:49:38.100Z,4.03
2022-09-15T14:53:05.564Z,4.18
2022-09-15T14:56:36.723Z,3.15
2022-09-15T15:00:05.147Z,2.83
2022-09-15T15:03:35.953Z,7.40
2022-09-15T15:07:04.347Z,4.65
2022-09-15T15:10:35.488Z,2.40
2022-09-15T15:13:59.375Z,4.30
2022-09-15T15:17:35.340Z,3.60
2022-09-15T15:20:59.122Z,2.20
2022-09-15T15:24:25.558Z,2.22
2022-09-15T15:27:53.534Z,2.30
2022-09-15T15:31:18.365Z,6.15
2022-09-15T15:34:43.349Z,3.33
2022-09-15T15:38:10.165Z,3.42
2022-09-15T15:41:37.718Z,2.63
2022-09-15T15:45:06.772Z,2.45
2022-09-15T15:48:36.770Z,11.80
2022-09-15T15:52:02.321Z,2.78
2022-09-15T15:55:29.775Z,4.78
2022-09-15T15:58:57.146Z,3.38
2022-09-15T16:02:21.098Z,2.67
2022-09-15T16:05:48.081Z,2.50
2022-09-15T16:09:11.149Z,2.97
2022-09-15T16:12:39.168Z,2.10
2022-09-15T16:16:17.446Z,1.98
2022-09-15T16:19:40.808Z,2.27
2022-09-15T16:23:04.078Z,1.90
2022-09-15T16:26:28.173Z,7.50
2022-09-15T16:29:51.225Z,10.98
2022-09-15T16:33:17.769Z,8.98
2022-09-15T16:36:40.927Z,7.50
2022-09-15T16:40:07.422Z,4.13
2022-09-15T16:43:31.051Z,2.10
2022-09-15T16:46:57.868Z,2.00
2022-09-15T16:50:24.339Z,2.70
2022-09-15T16:53:48.186Z,4.47
2022-09-15T16:57:11.487Z,2.70
2022-09-15T17:00:37.428Z,2.70
2022-09-15T17:04:00.997Z,3.08
2022-09-15T17:07:26.181Z,2.60
2022-09-15T17:10:50.605Z,3.72
2022-09-15T17:14:16.326Z,2.30
2022-09-15T17:17:39.291Z,2.10
2022-09-15T17:21:02.141Z,1.55
2022-09-15T17:24:26.945Z,1.63
2022-09-15T17:27:50.520Z,1.80
2022-09-15T17:31:16.804Z,1.70
2022-09-15T17:34:40.020Z,1.60
2022-09-15T17:38:03.293Z,1.67
2022-09-15T17:41:27.996Z,2.75
2022-09-15T17:44:50.954Z,2.20
2022-09-15T17:48:14.317Z,1.75
2022-09-15T17:51:37.206Z,1.63
2022-09-15T17:55:00.197Z,1.95
2022-09-15T17:58:27.299Z,2.10
2022-09-15T18:01:51.228Z,2.53
2022-09-15T18:05:27.045Z,1.52
2022-09-15T18:08:49.999Z,1.30
2022-09-15T18:12:15.627Z,1.75
2022-09-15T18:15:40.349Z,1.30
2022-09-15T18:19:03.383Z,2.10
2022-09-15T18:22:27.167Z,1.60
2022-09-15T18:25:51.046Z,2.20
2022-09-15T18:29:15.513Z,2.40
2022-09-15T18:32:45.056Z,2.15
2022-09-15T18:36:11.397Z,2.15
2022-09-15T18:39:34.558Z,3.05
2022-09-15T18:42:59.358Z,2.22
2022-09-15T18:46:22.343Z,2.40
2022-09-15T18:49:46.818Z,2.50
2022-09-15T18:53:09.676Z,2.72
2022-09-15T18:56:33.349Z,2.47
2022-09-15T18:59:56.212Z,2.65
2022-09-15T19:03:19.210Z,1.75
2022-09-15T19:06:43.361Z,1.98
2022-09-15T19:10:07.444Z,1.33
2022-09-15T19:13:30.400Z,1.83
2022-09-15T19:16:57.874Z,2.08
2022-09-15T19:20:21.552Z,1.55
2022-09-15T19:23:46.040Z,1.52
2022-09-15T19:27:10.219Z,1.40
2022-09-15T19:30:33.219Z,1.67
2022-09-15T19:33:56.219Z,1.50
2022-09-15T19:37:24.232Z,1.13
2022-09-15T19:40:48.628Z,1.20
2022-09-15T19:44:11.785Z,0.95
2022-09-15T19:47:35.158Z,0.55
2022-09-15T19:50:57.834Z,0.90
2022-09-15T19:54:20.669Z,0.70
2022-09-15T19:57:45.059Z,1.02
2022-09-15T20:01:07.833Z,0.82
2022-09-15T20:08:12.066Z,1.40
2022-09-15T20:11:36.356Z,1.58
2022-09-15T20:15:00.645Z,1.80
2022-09-15T20:18:23.923Z,2.10
2022-09-15T20:21:50.674Z,1.85
2022-09-15T20:25:14.037Z,5.28
2022-09-15T20:28:38.023Z,4.75
2022-09-15T20:32:02.617Z,4.05
2022-09-15T20:35:28.342Z,6.72
2022-09-15T20:38:52.603Z,4.97
2022-09-15T20:42:15.690Z,1.98
2022-09-15T20:45:38.937Z,1.75
2022-09-15T20:49:03.761Z,1.60
2022-09-15T20:52:29.609Z,1.55
2022-09-15T20:55:53.169Z,2.60
2022-09-15T20:59:16.639Z,3.13
2022-09-15T21:02:39.863Z,2.17
2022-09-15T21:06:06.554Z,1.75
2022-09-15T21:09:29.208Z,1.98
2022-09-15T21:12:52.170Z,2.42
2022-09-15T21:16:17.817Z,1.42
2022-09-15T21:19:40.747Z,1.40
2022-09-15T21:23:05.141Z,1.60
2022-09-15T21:26:30.041Z,1.30
2022-09-15T21:29:52.899Z,2.10
2022-09-15T21:33:16.370Z,1.52
2022-09-15T21:36:39.744Z,1.50
2022-09-15T21:40:06.255Z,1.50
2022-09-15T21:43:32.521Z,1.88
2022-09-15T21:46:55.902Z,1.48
2022-09-15T21:50:19.310Z,1.90
2022-09-15T21:53:43.559Z,2.13
2022-09-15T21:57:08.262Z,2.20
2022-09-15T22:00:31.220Z,2.20
2022-09-15T22:03:55.715Z,1.98
2022-09-15T22:07:19.905Z,2.20
2022-09-15T22:10:44.500Z,2.33
2022-09-15T22:14:10.012Z,2.22
2022-09-15T22:17:32.988Z,2.00
2022-09-15T22:21:06.076Z,1.75
2022-09-15T22:24:29.241Z,2.22
2022-09-15T22:27:52.095Z,2.30
2022-09-15T22:31:19.106Z,2.50
2022-09-15T22:34:41.907Z,1.90
2022-09-15T22:38:04.663Z,2.17
2022-09-15T22:41:27.828Z,2.47
2022-09-15T22:44:51.097Z,2.00
2022-09-15T22:48:15.483Z,1.75
2022-09-15T22:51:38.445Z,1.40
2022-09-15T22:55:02.456Z,1.60
2022-09-15T22:58:25.600Z,1.52
2022-09-15T23:01:49.218Z,2.45
2022-09-15T23:05:13.462Z,1.75
2022-09-15T23:08:37.248Z,1.58
2022-09-15T23:12:00.002Z,2.50
2022-09-15T23:15:22.752Z,2.10
2022-09-15T23:18:45.815Z,3.78
2022-09-15T23:22:10.100Z,2.30
2022-09-15T23:25:33.088Z,2.40
2022-09-15T23:28:56.743Z,2.30
2022-09-15T23:32:19.282Z,3.10
2022-09-15T23:35:42.253Z,2.28
2022-09-15T23:39:06.748Z,4.75
2022-09-15T23:42:29.605Z,4.18
2022-09-15T23:45:53.899Z,3.78
2022-09-15T23:49:18.803Z,3.55
2022-09-15T23:52:42.069Z,3.08
2022-09-15T23:56:06.875Z,2.65
2022-09-15T23:59:30.151Z,3.30
